createdAt,value
2017-08-05T00:00:02.895Z,28.3
2017-08-05T00:01:12.131Z,28.19
2017-08-05T00:02:21.031Z,28.22
2017-08-05T00:03:29.956Z,28.31
2017-08-05T00:04:38.958Z,28.3
2017-08-05T00:05:47.867Z,28.26
2017-08-05T00:06:56.779Z,28.21
2017-08-05T00:08:05.689Z,28.27
2017-08-05T00:09:14.592Z,28.22
2017-08-05T00:10:23.496Z,28.15
2017-08-05T00:11:32.405Z,28.21
2017-08-05T00:12:41.313Z,28.21
2017-08-05T00:13:50.217Z,28.24
2017-08-05T00:14:59.468Z,28.18
2017-08-05T00:16:08.368Z,28.27
2017-08-05T00:17:17.281Z,28.26
2017-08-05T00:18:26.185Z,28.24
2017-08-05T00:19:35.429Z,28.26
2017-08-05T00:20:44.327Z,28.18
2017-08-05T00:21:53.233Z,28.24
2017-08-05T00:23:02.135Z,28.26
2017-08-05T00:24:11.045Z,28.24
2017-08-05T00:25:19.943Z,28.14
2017-08-05T00:26:28.855Z,28.15
2017-08-05T00:27:37.769Z,28.17
2017-08-05T00:28:46.673Z,28.07
2017-08-05T00:29:55.597Z,28.12
2017-08-05T00:31:04.498Z,28.05
2017-08-05T00:32:13.410Z,28.12
2017-08-05T00:33:22.312Z,28.12
2017-08-05T00:34:31.221Z,28.14
2017-08-05T00:35:40.121Z,28.15
2017-08-05T00:36:49.029Z,28.08
2017-08-05T00:37:57.926Z,28.05
2017-08-05T00:39:06.844Z,28.08
2017-08-05T00:40:15.751Z,28.07
2017-08-05T00:41:24.982Z,28.02
2017-08-05T00:42:33.894Z,28.09
2017-08-05T00:43:42.799Z,28.07
2017-08-05T00:44:51.703Z,28.08
2017-08-05T00:46:00.604Z,28.03
2017-08-05T00:47:09.836Z,28
2017-08-05T00:48:18.743Z,28.03
2017-08-05T00:49:27.651Z,27.93
2017-08-05T00:50:36.549Z,27.96
2017-08-05T00:51:45.456Z,27.99
2017-08-05T00:52:54.358Z,28.12
2017-08-05T00:54:03.267Z,28.12
2017-08-05T00:55:12.181Z,28.11
2017-08-05T00:56:21.086Z,28.08
2017-08-05T00:57:29.991Z,28.07
2017-08-05T00:58:38.909Z,27.97
2017-08-05T00:59:47.808Z,27.96
2017-08-05T01:00:56.714Z,27.99
2017-08-05T01:02:05.621Z,28.03
2017-08-05T01:03:14.533Z,28.08
2017-08-05T01:04:23.437Z,28.07
2017-08-05T01:05:32.350Z,28.05
2017-08-05T01:06:41.255Z,27.93
2017-08-05T01:07:50.161Z,28.03
2017-08-05T01:08:59.069Z,27.99
2017-08-05T01:10:07.988Z,28.09
2017-08-05T01:11:16.885Z,28
2017-08-05T01:12:25.796Z,27.92
2017-08-05T01:13:34.699Z,28
2017-08-05T01:14:43.611Z,28
2017-08-05T01:15:52.513Z,28
2017-08-05T01:17:01.426Z,27.9
2017-08-05T01:18:10.647Z,27.99
2017-08-05T01:19:19.554Z,27.97
2017-08-05T01:20:28.461Z,27.93
2017-08-05T01:21:37.376Z,27.97
2017-08-05T01:22:46.283Z,27.97
2017-08-05T01:23:55.185Z,27.94
2017-08-05T01:25:04.096Z,27.99
2017-08-05T01:26:13.000Z,27.92
2017-08-05T01:27:21.928Z,27.93
2017-08-05T01:28:30.829Z,27.96
2017-08-05T01:29:40.060Z,27.94
2017-08-05T01:30:48.962Z,27.99
2017-08-05T01:31:57.870Z,27.93
2017-08-05T01:33:06.780Z,27.93
2017-08-05T01:34:15.689Z,27.92
2017-08-05T01:35:24.591Z,27.93
2017-08-05T01:36:33.504Z,27.87
2017-08-05T01:37:42.408Z,27.89
2017-08-05T01:38:51.344Z,27.9
2017-08-05T01:40:00.245Z,27.92
2017-08-05T01:41:09.172Z,27.94
2017-08-05T01:42:18.077Z,27.99
2017-08-05T01:43:26.982Z,27.9
2017-08-05T01:44:35.888Z,27.94
2017-08-05T01:45:44.787Z,27.8
2017-08-05T01:46:53.694Z,27.87
2017-08-05T01:48:02.598Z,27.87
2017-08-05T01:49:11.507Z,27.84
2017-08-05T01:50:20.740Z,27.87
2017-08-05T01:51:29.649Z,27.87
2017-08-05T01:52:38.569Z,27.89
2017-08-05T01:53:47.487Z,27.93
2017-08-05T01:54:56.391Z,27.85
2017-08-05T01:56:05.291Z,27.84
2017-08-05T01:57:14.197Z,27.87
2017-08-05T01:58:23.104Z,27.81
2017-08-05T01:59:32.015Z,27.82
2017-08-05T02:00:40.926Z,27.81
2017-08-05T02:01:49.833Z,27.82
2017-08-05T02:02:58.733Z,27.89
2017-08-05T02:04:07.633Z,27.84
2017-08-05T02:05:16.533Z,27.85
2017-08-05T02:06:25.437Z,27.85
2017-08-05T02:07:34.338Z,27.77
2017-08-05T02:08:43.246Z,27.74
2017-08-05T02:09:52.497Z,27.82
2017-08-05T02:11:01.399Z,27.85
2017-08-05T02:12:10.320Z,27.8
2017-08-05T02:13:19.225Z,27.78
2017-08-05T02:14:28.130Z,27.77
2017-08-05T02:15:37.038Z,27.89
2017-08-05T02:16:45.952Z,27.81
2017-08-05T02:17:54.855Z,27.75
2017-08-05T02:19:04.078Z,27.74
2017-08-05T02:20:12.989Z,27.87
2017-08-05T02:21:22.213Z,27.72
2017-08-05T02:22:31.130Z,27.75
2017-08-05T02:23:40.043Z,27.8
2017-08-05T02:24:49.597Z,27.68
2017-08-05T02:25:58.516Z,27.81
2017-08-05T02:27:07.429Z,27.84
2017-08-05T02:28:16.331Z,27.78
2017-08-05T02:29:25.238Z,27.74
2017-08-05T02:30:34.159Z,27.75
2017-08-05T02:31:43.073Z,27.75
2017-08-05T02:32:51.999Z,27.84
2017-08-05T02:34:00.921Z,27.8
2017-08-05T02:35:09.830Z,27.78
2017-08-05T02:36:18.740Z,27.77
2017-08-05T02:37:27.647Z,27.71
2017-08-05T02:38:36.877Z,27.68
2017-08-05T02:39:45.802Z,27.71
2017-08-05T02:40:54.710Z,27.71
2017-08-05T02:42:03.947Z,27.74
2017-08-05T02:43:12.851Z,27.74
2017-08-05T02:44:21.761Z,27.75
2017-08-05T02:45:30.684Z,27.72
2017-08-05T02:46:39.603Z,27.7
2017-08-05T02:47:48.515Z,27.72
2017-08-05T02:48:57.426Z,27.7
2017-08-05T02:50:06.653Z,27.66
2017-08-05T02:51:15.564Z,27.63
2017-08-05T02:52:24.472Z,27.6
2017-08-05T02:53:33.402Z,27.52
2017-08-05T02:54:42.304Z,27.54
2017-08-05T02:55:51.207Z,27.59
2017-08-05T02:57:00.121Z,27.71
2017-08-05T02:58:09.027Z,27.7
2017-08-05T02:59:17.932Z,27.7
2017-08-05T03:00:26.850Z,27.74
2017-08-05T03:01:35.768Z,27.66
2017-08-05T03:02:44.993Z,27.72
2017-08-05T03:03:53.894Z,27.68
2017-08-05T03:05:03.117Z,27.71
2017-08-05T03:06:12.023Z,27.66
2017-08-05T03:07:20.932Z,27.74
2017-08-05T03:08:29.833Z,27.6
2017-08-05T03:09:38.740Z,27.58
2017-08-05T03:10:47.639Z,27.55
2017-08-05T03:11:56.559Z,27.55
2017-08-05T03:13:05.461Z,27.59
2017-08-05T03:14:14.661Z,27.59
2017-08-05T03:15:23.569Z,27.58
2017-08-05T03:16:32.470Z,27.54
2017-08-05T03:17:41.380Z,27.59
2017-08-05T03:18:50.280Z,27.6
2017-08-05T03:19:59.194Z,27.52
2017-08-05T03:21:08.430Z,27.54
2017-08-05T03:22:17.335Z,27.47
2017-08-05T03:23:26.235Z,27.55
2017-08-05T03:24:35.154Z,27.55
2017-08-05T03:25:44.065Z,27.58
2017-08-05T03:26:52.977Z,27.54
2017-08-05T03:28:01.881Z,27.59
2017-08-05T03:29:10.783Z,27.59
2017-08-05T03:30:19.689Z,27.55
2017-08-05T03:31:28.613Z,27.46
2017-08-05T03:32:37.518Z,27.51
2017-08-05T03:33:46.423Z,27.47
2017-08-05T03:34:55.648Z,27.46
2017-08-05T03:36:04.545Z,27.42
2017-08-05T03:37:13.450Z,27.4
2017-08-05T03:38:22.353Z,27.46
2017-08-05T03:39:31.255Z,27.46
2017-08-05T03:40:40.165Z,27.59
2017-08-05T03:41:49.073Z,27.54
2017-08-05T03:42:57.965Z,27.44
2017-08-05T03:44:06.880Z,27.37
2017-08-05T03:45:15.781Z,27.46
2017-08-05T03:46:24.680Z,27.51
2017-08-05T03:47:33.588Z,27.36
2017-08-05T03:48:42.820Z,27.4
2017-08-05T03:49:51.723Z,27.46
2017-08-05T03:51:00.625Z,27.44
2017-08-05T03:52:09.535Z,27.44
2017-08-05T03:53:18.440Z,27.46
2017-08-05T03:54:27.350Z,27.37
2017-08-05T03:55:36.251Z,27.46
2017-08-05T03:56:45.157Z,27.44
2017-08-05T03:57:54.074Z,27.46
2017-08-05T03:59:02.987Z,27.43
2017-08-05T04:00:11.920Z,27.43
2017-08-05T04:01:20.832Z,27.39
2017-08-05T04:02:29.736Z,27.42
2017-08-05T04:03:38.642Z,27.39
2017-08-05T04:04:47.875Z,27.4
2017-08-05T04:05:56.774Z,27.43
2017-08-05T04:07:05.678Z,27.47
2017-08-05T04:08:14.585Z,27.37
2017-08-05T04:09:23.484Z,27.36
2017-08-05T04:10:32.387Z,27.37
2017-08-05T04:11:41.293Z,27.37
2017-08-05T04:12:50.198Z,27.37
2017-08-05T04:13:59.114Z,27.28
2017-08-05T04:15:08.022Z,27.33
2017-08-05T04:16:16.922Z,27.43
2017-08-05T04:17:25.836Z,27.42
2017-08-05T04:18:35.061Z,27.4
2017-08-05T04:19:43.972Z,27.37
2017-08-05T04:20:52.877Z,27.37
2017-08-05T04:22:01.784Z,27.4
2017-08-05T04:23:10.683Z,27.33
2017-08-05T04:24:19.586Z,27.33
2017-08-05T04:25:28.488Z,27.36
2017-08-05T04:26:37.401Z,27.28
2017-08-05T04:27:46.309Z,27.34
2017-08-05T04:28:55.206Z,27.34
2017-08-05T04:30:04.111Z,27.27
2017-08-05T04:31:13.015Z,27.37
2017-08-05T04:32:21.928Z,27.28
2017-08-05T04:33:30.837Z,27.33
2017-08-05T04:34:39.742Z,27.27
2017-08-05T04:35:48.643Z,27.32
2017-08-05T04:36:57.552Z,27.25
2017-08-05T04:38:06.775Z,27.24
2017-08-05T04:39:15.683Z,27.32
2017-08-05T04:40:24.583Z,27.34
2017-08-05T04:41:33.493Z,27.32
2017-08-05T04:42:42.404Z,27.3
2017-08-05T04:43:51.631Z,27.27
2017-08-05T04:45:00.538Z,27.33
2017-08-05T04:46:09.455Z,27.32
2017-08-05T04:47:18.358Z,27.33
2017-08-05T04:48:27.262Z,27.21
2017-08-05T04:49:36.176Z,27.3
2017-08-05T04:50:45.072Z,27.25
2017-08-05T04:51:53.973Z,27.25
2017-08-05T04:53:02.895Z,27.33
2017-08-05T04:54:12.127Z,27.25
2017-08-05T04:55:21.036Z,27.34
2017-08-05T04:56:29.939Z,27.3
2017-08-05T04:57:38.846Z,27.3
2017-08-05T04:58:47.766Z,27.22
2017-08-05T04:59:56.673Z,27.34
2017-08-05T05:01:05.590Z,27.22
2017-08-05T05:02:14.498Z,27.21
2017-08-05T05:03:23.733Z,27.25
2017-08-05T05:04:32.981Z,27.3
2017-08-05T05:05:42.197Z,27.21
2017-08-05T05:06:51.426Z,27.2
2017-08-05T05:08:00.661Z,27.27
2017-08-05T05:09:09.560Z,27.24
2017-08-05T05:10:18.789Z,27.2
2017-08-05T05:11:28.329Z,27.22
2017-08-05T05:12:37.235Z,27.21
2017-08-05T05:13:46.141Z,27.2
2017-08-05T05:14:55.051Z,27.28
2017-08-05T05:16:03.959Z,27.24
2017-08-05T05:17:12.874Z,27.2
2017-08-05T05:18:21.775Z,27.25
2017-08-05T05:19:30.676Z,27.27
2017-08-05T05:20:39.897Z,27.21
2017-08-05T05:21:48.802Z,27.25
2017-08-05T05:22:57.713Z,27.27
2017-08-05T05:24:07.264Z,27.27
2017-08-05T05:25:16.163Z,27.15
2017-08-05T05:26:25.063Z,27.21
2017-08-05T05:27:33.971Z,27.22
2017-08-05T05:28:42.871Z,27.21
2017-08-05T05:29:51.777Z,27.21
2017-08-05T05:31:00.695Z,27.28
2017-08-05T05:32:09.927Z,27.21
2017-08-05T05:33:19.158Z,27.2
2017-08-05T05:34:28.075Z,27.18
2017-08-05T05:35:37.303Z,27.22
2017-08-05T05:36:46.207Z,27.24
2017-08-05T05:37:55.135Z,27.27
2017-08-05T05:39:04.044Z,27.33
2017-08-05T05:40:12.944Z,27.32
2017-08-05T05:41:21.852Z,27.28
2017-08-05T05:42:30.762Z,27.21
2017-08-05T05:43:39.662Z,27.28
2017-08-05T05:44:48.570Z,27.39
2017-08-05T05:45:57.472Z,27.37
2017-08-05T05:47:06.714Z,27.36
2017-08-05T05:48:15.617Z,27.39
2017-08-05T05:49:24.524Z,27.42
2017-08-05T05:50:33.452Z,27.39
2017-08-05T05:51:42.357Z,27.44
2017-08-05T05:52:51.258Z,27.44
2017-08-05T05:54:00.177Z,27.46
2017-08-05T05:55:09.083Z,27.39
2017-08-05T05:56:17.998Z,27.43
2017-08-05T05:57:26.918Z,27.46
2017-08-05T05:58:35.824Z,27.44
2017-08-05T05:59:44.740Z,27.44
2017-08-05T06:00:53.639Z,27.47
2017-08-05T06:02:02.556Z,27.43
2017-08-05T06:03:11.466Z,27.36
2017-08-05T06:04:20.383Z,27.44
2017-08-05T06:05:29.286Z,27.52
2017-08-05T06:06:38.196Z,27.51
2017-08-05T06:07:47.093Z,27.58
2017-08-05T06:08:56.007Z,27.55
2017-08-05T06:10:04.910Z,27.46
2017-08-05T06:11:14.146Z,27.51
2017-08-05T06:12:23.039Z,27.49
2017-08-05T06:13:31.948Z,27.52
2017-08-05T06:14:40.858Z,27.44
2017-08-05T06:15:49.770Z,27.47
2017-08-05T06:16:58.675Z,27.4
2017-08-05T06:18:07.580Z,27.44
2017-08-05T06:19:16.480Z,27.43
2017-08-05T06:20:25.718Z,27.44
2017-08-05T06:21:34.629Z,27.4
2017-08-05T06:22:43.530Z,27.39
2017-08-05T06:23:52.448Z,27.44
2017-08-05T06:25:01.352Z,27.46
2017-08-05T06:26:10.256Z,27.44
2017-08-05T06:27:19.164Z,27.47
2017-08-05T06:28:28.401Z,27.54
2017-08-05T06:29:37.301Z,27.47
2017-08-05T06:30:46.209Z,27.37
2017-08-05T06:31:55.111Z,27.39
2017-08-05T06:33:04.349Z,27.47
2017-08-05T06:34:13.256Z,27.43
2017-08-05T06:35:22.193Z,27.47
2017-08-05T06:36:31.100Z,27.46
2017-08-05T06:37:40.005Z,27.42
2017-08-05T06:38:48.903Z,27.46
2017-08-05T06:39:57.807Z,27.54
2017-08-05T06:41:06.713Z,27.37
2017-08-05T06:42:15.615Z,27.37
2017-08-05T06:43:24.526Z,27.49
2017-08-05T06:44:33.757Z,27.51
2017-08-05T06:45:42.670Z,27.46
2017-08-05T06:46:51.571Z,27.42
2017-08-05T06:48:00.476Z,27.47
2017-08-05T06:49:09.378Z,27.43
2017-08-05T06:50:18.288Z,27.37
2017-08-05T06:51:27.199Z,27.46
2017-08-05T06:52:36.109Z,27.46
2017-08-05T06:53:45.016Z,27.51
2017-08-05T06:54:53.916Z,27.43
2017-08-05T06:56:02.819Z,27.47
2017-08-05T06:57:11.722Z,27.49
2017-08-05T06:58:20.632Z,27.44
2017-08-05T06:59:29.534Z,27.51
2017-08-05T07:00:38.437Z,27.58
2017-08-05T07:01:47.339Z,27.47
2017-08-05T07:02:56.242Z,27.55
2017-08-05T07:04:05.159Z,27.59
2017-08-05T07:05:14.061Z,27.58
2017-08-05T07:06:22.970Z,27.54
2017-08-05T07:07:32.192Z,27.52
2017-08-05T07:08:41.096Z,27.63
2017-08-05T07:09:50.013Z,27.58
2017-08-05T07:10:58.919Z,27.54
2017-08-05T07:12:08.156Z,27.55
2017-08-05T07:13:17.058Z,27.59
2017-08-05T07:14:25.957Z,27.58
2017-08-05T07:15:34.860Z,27.52
2017-08-05T07:16:43.772Z,27.55
2017-08-05T07:17:52.674Z,27.51
2017-08-05T07:19:01.585Z,27.55
2017-08-05T07:20:10.490Z,27.54
2017-08-05T07:21:19.399Z,27.54
2017-08-05T07:22:28.312Z,27.46
2017-08-05T07:23:37.221Z,27.47
2017-08-05T07:24:46.125Z,27.46
2017-08-05T07:25:55.028Z,27.52
2017-08-05T07:27:03.951Z,27.55
2017-08-05T07:28:13.501Z,27.52
2017-08-05T07:29:22.409Z,27.54
2017-08-05T07:30:31.318Z,27.51
2017-08-05T07:31:40.229Z,27.49
2017-08-05T07:32:49.134Z,27.49
2017-08-05T07:33:58.040Z,27.47
2017-08-05T07:35:06.946Z,27.52
2017-08-05T07:36:16.195Z,27.52
2017-08-05T07:37:25.117Z,27.47
2017-08-05T07:38:34.348Z,27.54
2017-08-05T07:39:43.272Z,27.52
2017-08-05T07:40:52.184Z,27.54
2017-08-05T07:42:01.093Z,27.52
2017-08-05T07:43:09.999Z,27.51
2017-08-05T07:44:18.913Z,27.54
2017-08-05T07:45:27.826Z,27.55
2017-08-05T07:46:36.728Z,27.44
2017-08-05T07:47:45.636Z,27.52
2017-08-05T07:48:54.546Z,27.59
2017-08-05T07:50:03.448Z,27.52
2017-08-05T07:51:12.753Z,27.55
2017-08-05T07:52:21.656Z,27.58
2017-08-05T07:53:30.566Z,27.55
2017-08-05T07:54:39.470Z,27.54
2017-08-05T07:55:48.714Z,27.58
2017-08-05T07:56:57.939Z,27.62
2017-08-05T07:58:06.851Z,27.52
2017-08-05T07:59:15.745Z,27.63
2017-08-05T08:00:24.976Z,27.6
2017-08-05T08:01:33.879Z,27.66
2017-08-05T08:02:42.779Z,27.6
2017-08-05T08:03:51.678Z,27.62
2017-08-05T08:05:00.579Z,27.62
2017-08-05T08:06:09.807Z,27.66
2017-08-05T08:07:19.033Z,27.63
2017-08-05T08:08:27.929Z,27.66
2017-08-05T08:09:36.848Z,27.71
2017-08-05T08:10:45.755Z,27.7
2017-08-05T08:11:54.665Z,27.74
2017-08-05T08:13:03.566Z,27.65
2017-08-05T08:14:12.476Z,27.66
2017-08-05T08:15:21.377Z,27.66
2017-08-05T08:16:30.293Z,27.71
2017-08-05T08:17:39.202Z,27.7
2017-08-05T08:18:48.119Z,27.71
2017-08-05T08:19:57.018Z,27.68
2017-08-05T08:21:05.926Z,27.78
2017-08-05T08:22:14.828Z,27.84
2017-08-05T08:23:23.729Z,27.8
2017-08-05T08:24:32.632Z,27.75
2017-08-05T08:25:41.539Z,27.77
2017-08-05T08:26:50.447Z,27.74
2017-08-05T08:27:59.679Z,27.78
2017-08-05T08:29:08.583Z,27.72
2017-08-05T08:30:17.487Z,27.78
2017-08-05T08:31:26.401Z,27.78
2017-08-05T08:32:35.302Z,27.85
2017-08-05T08:33:44.207Z,27.78
2017-08-05T08:34:53.116Z,27.81
2017-08-05T08:36:02.024Z,27.82
2017-08-05T08:37:10.922Z,27.87
2017-08-05T08:38:19.836Z,27.87
2017-08-05T08:39:28.743Z,27.87
2017-08-05T08:40:37.650Z,27.9
2017-08-05T08:41:46.557Z,27.93
2017-08-05T08:42:55.464Z,27.89
2017-08-05T08:44:04.376Z,27.9
2017-08-05T08:45:13.286Z,27.87
2017-08-05T08:46:22.193Z,27.87
2017-08-05T08:47:31.103Z,27.81
2017-08-05T08:48:40.012Z,27.87
2017-08-05T08:49:48.918Z,27.87
2017-08-05T08:50:57.826Z,27.9
2017-08-05T08:52:07.055Z,27.9
2017-08-05T08:53:15.963Z,27.93
2017-08-05T08:54:24.861Z,28
2017-08-05T08:55:34.097Z,27.94
2017-08-05T08:56:43.000Z,27.94
2017-08-05T08:57:51.917Z,27.97
2017-08-05T08:59:00.834Z,27.97
2017-08-05T09:00:09.738Z,27.99
2017-08-05T09:01:18.647Z,27.94
2017-08-05T09:02:27.559Z,27.99
2017-08-05T09:03:36.468Z,27.99
2017-08-05T09:04:45.375Z,27.94
2017-08-05T09:05:54.286Z,27.94
2017-08-05T09:07:03.195Z,27.96
2017-08-05T09:08:12.102Z,27.97
2017-08-05T09:09:21.015Z,28
2017-08-05T09:10:29.915Z,27.96
2017-08-05T09:11:38.824Z,28
2017-08-05T09:12:48.066Z,27.93
2017-08-05T09:13:56.994Z,28.07
2017-08-05T09:15:05.930Z,27.99
2017-08-05T09:16:15.169Z,27.96
2017-08-05T09:17:24.079Z,28.05
2017-08-05T09:18:32.985Z,28.03
2017-08-05T09:19:41.905Z,28.09
2017-08-05T09:20:50.813Z,28.11
2017-08-05T09:21:59.717Z,28.05
2017-08-05T09:23:08.619Z,28.12
2017-08-05T09:24:17.524Z,28.12
2017-08-05T09:25:26.425Z,28.14
2017-08-05T09:26:35.335Z,27.99
2017-08-05T09:27:44.239Z,28.08
2017-08-05T09:28:53.156Z,28.03
2017-08-05T09:30:02.067Z,28.05
2017-08-05T09:31:11.312Z,28.08
2017-08-05T09:32:20.214Z,28.07
2017-08-05T09:33:29.133Z,28.02
2017-08-05T09:34:38.043Z,28.08
2017-08-05T09:35:46.948Z,28.14
2017-08-05T09:36:55.862Z,28.12
2017-08-05T09:38:04.778Z,28.05
2017-08-05T09:39:14.014Z,28.22
2017-08-05T09:40:22.913Z,28.15
2017-08-05T09:41:31.819Z,28.17
2017-08-05T09:42:40.729Z,28.21
2017-08-05T09:43:49.638Z,28.18
2017-08-05T09:44:58.868Z,28.19
2017-08-05T09:46:07.784Z,28.19
2017-08-05T09:47:16.687Z,28.26
2017-08-05T09:48:25.595Z,28.27
2017-08-05T09:49:34.499Z,28.22
2017-08-05T09:50:43.407Z,28.24
2017-08-05T09:51:52.303Z,28.21
2017-08-05T09:53:01.214Z,28.26
2017-08-05T09:54:10.129Z,28.21
2017-08-05T09:55:19.032Z,28.3
2017-08-05T09:56:27.933Z,28.29
2017-08-05T09:57:36.843Z,28.31
2017-08-05T09:58:45.752Z,28.29
2017-08-05T09:59:54.652Z,28.31
2017-08-05T10:01:03.561Z,28.3
2017-08-05T10:02:12.466Z,28.3
2017-08-05T10:03:21.367Z,28.29
2017-08-05T10:04:30.280Z,28.31
2017-08-05T10:05:39.184Z,28.27
2017-08-05T10:06:48.091Z,28.3
2017-08-05T10:07:56.998Z,28.3
2017-08-05T10:09:05.909Z,28.34
2017-08-05T10:10:14.807Z,28.34
2017-08-05T10:11:23.718Z,28.34
2017-08-05T10:12:32.620Z,28.31
2017-08-05T10:13:41.528Z,28.3
2017-08-05T10:14:50.755Z,28.33
2017-08-05T10:15:59.664Z,28.3
2017-08-05T10:17:08.569Z,28.31
2017-08-05T10:18:17.482Z,28.34
2017-08-05T10:19:26.733Z,28.44
2017-08-05T10:20:35.639Z,28.37
2017-08-05T10:21:44.549Z,28.34
2017-08-05T10:22:53.451Z,28.39
2017-08-05T10:24:02.361Z,28.42
2017-08-05T10:25:11.268Z,28.36
2017-08-05T10:26:20.177Z,28.42
2017-08-05T10:27:29.409Z,28.48
2017-08-05T10:28:38.327Z,28.4
2017-08-05T10:29:47.231Z,28.39
2017-08-05T10:30:56.133Z,28.42
2017-08-05T10:32:05.038Z,28.36
2017-08-05T10:33:13.952Z,28.4
2017-08-05T10:34:22.873Z,28.42
2017-08-05T10:35:31.777Z,28.4
2017-08-05T10:36:40.681Z,28.44
2017-08-05T10:37:49.903Z,28.4
2017-08-05T10:38:58.806Z,28.37
2017-08-05T10:40:07.716Z,28.39
2017-08-05T10:41:16.624Z,28.4
2017-08-05T10:42:25.529Z,28.45
2017-08-05T10:43:34.440Z,28.39
2017-08-05T10:44:43.353Z,28.36
2017-08-05T10:45:52.257Z,28.44
2017-08-05T10:47:01.161Z,28.4
2017-08-05T10:48:10.069Z,28.36
2017-08-05T10:49:18.980Z,28.37
2017-08-05T10:50:27.883Z,28.45
2017-08-05T10:51:36.785Z,28.39
2017-08-05T10:52:45.698Z,28.36
2017-08-05T10:53:54.608Z,28.36
2017-08-05T10:55:03.512Z,28.4
2017-08-05T10:56:12.434Z,28.29
2017-08-05T10:57:21.341Z,28.33
2017-08-05T10:58:30.268Z,28.36
2017-08-05T10:59:39.174Z,28.4
2017-08-05T11:00:48.086Z,28.33
2017-08-05T11:01:56.999Z,28.37
2017-08-05T11:03:05.909Z,28.42
2017-08-05T11:04:15.145Z,28.3
2017-08-05T11:05:24.376Z,28.3
2017-08-05T11:06:33.292Z,28.33
2017-08-05T11:07:42.200Z,28.33
2017-08-05T11:08:51.109Z,28.34
2017-08-05T11:10:00.011Z,28.33
2017-08-05T11:11:09.241Z,28.31
2017-08-05T11:12:18.158Z,28.36
2017-08-05T11:13:27.061Z,28.33
2017-08-05T11:14:35.969Z,28.37
2017-08-05T11:15:44.878Z,28.31
2017-08-05T11:16:53.780Z,28.42
2017-08-05T11:18:02.679Z,28.39
2017-08-05T11:19:11.582Z,28.34
2017-08-05T11:20:20.482Z,28.45
2017-08-05T11:21:29.392Z,28.45
2017-08-05T11:22:38.297Z,28.44
2017-08-05T11:23:47.219Z,28.45
2017-08-05T11:24:56.126Z,28.42
2017-08-05T11:26:05.028Z,28.4
2017-08-05T11:27:13.936Z,28.48
2017-08-05T11:28:22.847Z,28.44
2017-08-05T11:29:31.756Z,28.45
2017-08-05T11:30:40.660Z,28.45
2017-08-05T11:31:49.567Z,28.37
2017-08-05T11:32:58.473Z,28.44
2017-08-05T11:34:07.379Z,28.48
2017-08-05T11:35:16.281Z,28.45
2017-08-05T11:36:25.194Z,28.51
2017-08-05T11:37:34.095Z,28.36
2017-08-05T11:38:43.335Z,28.46
2017-08-05T11:39:52.241Z,28.46
2017-08-05T11:41:01.149Z,28.49
2017-08-05T11:42:10.062Z,28.45
2017-08-05T11:43:18.968Z,28.51
2017-08-05T11:44:27.893Z,28.52
2017-08-05T11:45:36.798Z,28.49
2017-08-05T11:46:45.699Z,28.44
2017-08-05T11:47:54.601Z,28.51
2017-08-05T11:49:03.515Z,28.39
2017-08-05T11:50:12.421Z,28.49
2017-08-05T11:51:21.329Z,28.55
2017-08-05T11:52:30.244Z,28.44
2017-08-05T11:53:39.155Z,28.52
2017-08-05T11:54:48.394Z,28.45
2017-08-05T11:55:57.302Z,28.51
2017-08-05T11:57:06.206Z,28.46
2017-08-05T11:58:15.107Z,28.51
2017-08-05T11:59:24.021Z,28.48
2017-08-05T12:00:32.932Z,28.48
2017-08-05T12:01:41.845Z,28.54
2017-08-05T12:02:50.749Z,28.54
2017-08-05T12:03:59.670Z,28.44
2017-08-05T12:05:08.929Z,28.48
2017-08-05T12:06:17.843Z,28.54
2017-08-05T12:07:26.751Z,28.52
2017-08-05T12:08:35.660Z,28.49
2017-08-05T12:09:44.565Z,28.55
2017-08-05T12:10:53.465Z,28.52
2017-08-05T12:12:02.404Z,28.52
2017-08-05T12:13:11.336Z,28.49
2017-08-05T12:14:20.238Z,28.44
2017-08-05T12:15:29.134Z,28.45
2017-08-05T12:16:38.035Z,28.48
2017-08-05T12:17:46.935Z,28.51
2017-08-05T12:18:55.843Z,28.51
2017-08-05T12:20:04.750Z,28.55
2017-08-05T12:21:13.991Z,28.46
2017-08-05T12:22:22.904Z,28.55
2017-08-05T12:23:31.809Z,28.6
2017-08-05T12:24:41.034Z,28.52
2017-08-05T12:25:49.943Z,28.55
2017-08-05T12:26:58.849Z,28.6
2017-08-05T12:28:07.791Z,28.66
2017-08-05T12:29:16.699Z,28.52
2017-08-05T12:30:25.602Z,28.6
2017-08-05T12:31:34.514Z,28.52
2017-08-05T12:32:43.416Z,28.54
2017-08-05T12:33:52.331Z,28.48
2017-08-05T12:35:01.230Z,28.48
2017-08-05T12:36:10.457Z,28.48
2017-08-05T12:37:19.364Z,28.48
2017-08-05T12:38:28.272Z,28.48
2017-08-05T12:39:37.188Z,28.49
2017-08-05T12:40:46.104Z,28.46
2017-08-05T12:41:55.010Z,28.46
2017-08-05T12:43:03.918Z,28.48
2017-08-05T12:44:12.836Z,28.42
2017-08-05T12:45:21.740Z,28.49
2017-08-05T12:46:30.647Z,28.51
2017-08-05T12:47:39.557Z,28.49
2017-08-05T12:48:48.464Z,28.52
2017-08-05T12:49:57.368Z,28.49
2017-08-05T12:51:06.277Z,28.49
2017-08-05T12:52:15.178Z,28.55
2017-08-05T12:53:24.087Z,28.48
2017-08-05T12:54:32.991Z,28.49
2017-08-05T12:55:41.894Z,28.49
2017-08-05T12:56:50.803Z,28.52
2017-08-05T12:57:59.709Z,28.51
2017-08-05T12:59:08.611Z,28.46
2017-08-05T13:00:17.516Z,28.44
2017-08-05T13:01:26.422Z,28.48
2017-08-05T13:02:35.328Z,28.49
2017-08-05T13:03:44.229Z,28.42
2017-08-05T13:04:53.134Z,28.51
2017-08-05T13:06:02.035Z,28.46
2017-08-05T13:07:10.944Z,28.44
2017-08-05T13:08:19.849Z,28.46
2017-08-05T13:09:28.765Z,28.45
2017-08-05T13:10:37.662Z,28.48
2017-08-05T13:11:46.570Z,28.45
2017-08-05T13:12:55.475Z,28.46
2017-08-05T13:14:04.719Z,28.45
2017-08-05T13:15:13.625Z,28.46
2017-08-05T13:16:22.533Z,28.45
2017-08-05T13:17:31.434Z,28.46
2017-08-05T13:18:40.347Z,28.49
2017-08-05T13:19:49.254Z,28.44
2017-08-05T13:20:58.169Z,28.44
2017-08-05T13:22:07.085Z,28.48
2017-08-05T13:23:15.997Z,28.42
2017-08-05T13:24:24.905Z,28.45
2017-08-05T13:25:33.812Z,28.34
2017-08-05T13:26:42.714Z,28.4
2017-08-05T13:27:51.618Z,28.31
2017-08-05T13:29:00.530Z,28.29
2017-08-05T13:30:09.753Z,28.33
2017-08-05T13:31:18.677Z,28.4
2017-08-05T13:32:27.585Z,28.34
2017-08-05T13:33:36.494Z,28.29
2017-08-05T13:34:45.399Z,28.29
2017-08-05T13:35:54.321Z,28.33
2017-08-05T13:37:03.221Z,28.26
2017-08-05T13:38:12.475Z,28.29
2017-08-05T13:39:21.386Z,28.27
2017-08-05T13:40:30.290Z,28.29
2017-08-05T13:41:39.197Z,28.24
2017-08-05T13:42:48.103Z,28.24
2017-08-05T13:43:57.010Z,28.24
2017-08-05T13:45:05.909Z,28.29
2017-08-05T13:46:14.839Z,28.22
2017-08-05T13:47:23.747Z,28.27
2017-08-05T13:48:32.659Z,28.21
2017-08-05T13:49:41.559Z,28.27
2017-08-05T13:50:50.473Z,28.18
2017-08-05T13:51:59.378Z,28.22
2017-08-05T13:53:08.284Z,28.24
2017-08-05T13:54:17.189Z,28.21
2017-08-05T13:55:26.103Z,28.09
2017-08-05T13:56:35.007Z,28.12
2017-08-05T13:57:43.925Z,28.14
2017-08-05T13:58:52.835Z,28.18
2017-08-05T14:00:01.738Z,28.26
2017-08-05T14:01:10.651Z,28.19
2017-08-05T14:02:19.554Z,28.15
2017-08-05T14:03:28.462Z,28.09
2017-08-05T14:04:37.686Z,28.07
2017-08-05T14:05:46.593Z,28.05
2017-08-05T14:06:55.498Z,28.08
2017-08-05T14:08:04.732Z,28.14
2017-08-05T14:09:13.631Z,28.05
2017-08-05T14:10:22.537Z,28.07
2017-08-05T14:11:31.468Z,28.05
2017-08-05T14:12:40.370Z,28.02
2017-08-05T14:13:49.270Z,28.12
2017-08-05T14:14:58.819Z,28.14
2017-08-05T14:16:07.729Z,28.08
2017-08-05T14:17:16.636Z,28.11
2017-08-05T14:18:25.554Z,28
2017-08-05T14:19:34.462Z,28.03
2017-08-05T14:20:43.378Z,28.05
2017-08-05T14:21:52.282Z,28.05
2017-08-05T14:23:01.198Z,28.11
2017-08-05T14:24:10.097Z,28.03
2017-08-05T14:25:19.009Z,27.97
2017-08-05T14:26:27.943Z,27.99
2017-08-05T14:27:36.845Z,28
2017-08-05T14:28:45.755Z,27.97
2017-08-05T14:29:54.663Z,27.99
2017-08-05T14:31:03.889Z,27.96
2017-08-05T14:32:12.803Z,27.96
2017-08-05T14:33:21.719Z,27.97
2017-08-05T14:34:30.629Z,28
2017-08-05T14:35:39.541Z,28.09
2017-08-05T14:36:48.446Z,28.08
2017-08-05T14:37:57.347Z,28.12
2017-08-05T14:39:06.249Z,28.03
2017-08-05T14:40:15.154Z,28.05
2017-08-05T14:41:24.053Z,28.07
2017-08-05T14:42:32.961Z,28.02
2017-08-05T14:43:41.863Z,28
2017-08-05T14:44:50.768Z,28.07
2017-08-05T14:45:59.670Z,27.96
2017-08-05T14:47:09.230Z,27.96
2017-08-05T14:48:18.129Z,28
2017-08-05T14:49:27.366Z,27.97
2017-08-05T14:50:36.266Z,28.07
2017-08-05T14:51:45.175Z,28